Time;durP1;ratioP1;P1;durP2;ratioP2;P2;SDS_P1;SDS_P2;PMS_P1;PMS_P2;Temp;Humidity;BMP_temperature;BMP_pressure;BME280_temperature;BME280_humidity;BME280_pressure;Samples;Min_cycle;Max_cycle;Signal;HPM_P1;HPM_P2
2022/09/07 00:00:41;;;;;;;13.55;12.15;;;;;;;;;;5066722;28;20039;-68
2022/09/07 00:03:07;;;;;;;17.17;11.40;;;;;;;;;;5066209;28;20052;-68
2022/09/07 00:05:33;;;;;;;15.35;11.30;;;;;;;;;;5067361;28;20051;-67
2022/09/07 00:08:00;;;;;;;16.17;11.07;;;;;;;;;;5065206;28;20044;-68
2022/09/07 00:10:26;;;;;;;15.23;12.35;;;;;;;;;;5066427;28;20044;-68
2022/09/07 00:12:52;;;;;;;16.17;12.75;;;;;;;;;;5064811;28;20036;-68
2022/09/07 00:15:18;;;;;;;15.90;13.98;;;;;;;;;;5067224;28;20119;-68
2022/09/07 00:17:45;;;;;;;15.13;11.85;;;;;;;;;;5066942;28;20043;-67
2022/09/07 00:20:11;;;;;;;16.15;12.38;;;;;;;;;;5070345;28;20101;-67
2022/09/07 00:22:37;;;;;;;16.20;13.48;;;;;;;;;;5067505;28;20045;-67
2022/09/07 00:25:04;;;;;;;16.73;14.07;;;;;;;;;;5065399;28;20036;-68
2022/09/07 00:27:30;;;;;;;14.93;12.15;;;;;;;;;;5077424;28;20075;-68
2022/09/07 00:29:57;;;;;;;13.93;12.40;;;;;;;;;;5079153;28;20138;-68
2022/09/07 00:32:23;;;;;;;15.30;12.68;;;;;;;;;;5069475;28;20043;-68
2022/09/07 00:34:52;;;;;;;16.33;12.63;;;;;;;;;;5077205;28;20047;-68
2022/09/07 00:37:18;;;;;;;18.15;12.48;;;;;;;;;;5073456;28;20040;-68
2022/09/07 00:39:45;;;;;;;12.38;10.95;;;;;;;;;;5070556;28;20044;-68
2022/09/07 00:42:11;;;;;;;12.68;10.27;;;;;;;;;;5065278;28;20043;-68
2022/09/07 00:44:43;;;;;;;12.73;10.35;;;;;;;;;;5064598;28;20036;-68
2022/09/07 00:47:16;;;;;;;11.70;10.32;;;;;;;;;;5073464;28;20418;-68
2022/09/07 00:49:44;;;;;;;12.77;10.45;;;;;;;;;;5068721;28;20032;-68
2022/09/07 00:52:11;;;;;;;12.13;9.90;;;;;;;;;;5078920;28;20339;-68
2022/09/07 00:54:41;;;;;;;15.73;10.70;;;;;;;;;;5064195;28;20040;-68
2022/09/07 00:57:08;;;;;;;14.05;10.93;;;;;;;;;;5064164;28;20057;-68
2022/09/07 00:59:36;;;;;;;13.93;8.23;;;;;;;;;;5050319;28;20040;-68
2022/09/07 01:02:03;;;;;;;12.85;8.85;;;;;;;;;;5070204;28;20032;-68
2022/09/07 01:04:30;;;;;;;9.57;7.68;;;;;;;;;;5064329;28;20083;-68
2022/09/07 01:06:56;;;;;;;13.00;7.32;;;;;;;;;;5065606;28;20044;-68
2022/09/07 01:09:23;;;;;;;13.45;7.63;;;;;;;;;;5069762;28;20037;-68
2022/09/07 01:11:56;;;;;;;8.48;7.22;;;;;;;;;;5071506;28;20041;-69
2022/09/07 01:14:25;;;;;;;12.90;6.88;;;;;;;;;;5068402;28;20047;-68
2022/09/07 01:17:15;;;;;;;10.23;6.43;;;;;;;;;;5069277;28;20047;-68
2022/09/07 01:20:00;;;;;;;11.02;6.53;;;;;;;;;;5055255;28;20078;-68
2022/09/07 01:22:41;;;;;;;12.43;5.47;;;;;;;;;;5066087;28;20067;-68
2022/09/07 01:25:12;;;;;;;7.03;5.25;;;;;;;;;;5073777;28;20046;-68
2022/09/07 01:27:57;;;;;;;7.88;4.07;;;;;;;;;;5078658;28;20126;-69
2022/09/07 01:30:24;;;;;;;6.85;3.90;;;;;;;;;;5077007;28;20453;-68
2022/09/07 01:33:09;;;;;;;6.30;3.08;;;;;;;;;;5067225;28;20098;-68
2022/09/07 01:35:44;;;;;;;9.77;2.70;;;;;;;;;;5069746;28;20191;-68
2022/09/07 01:38:17;;;;;;;7.20;2.22;;;;;;;;;;5074684;28;20044;-67
2022/09/07 01:40:46;;;;;;;5.35;2.95;;;;;;;;;;5069363;28;20075;-68
2022/09/07 01:43:16;;;;;;;4.75;2.13;;;;;;;;;;5069421;28;20054;-68
2022/09/07 01:45:44;;;;;;;11.20;2.25;;;;;;;;;;5069771;28;20536;-68
2022/09/07 01:48:13;;;;;;;6.28;2.35;;;;;;;;;;5071921;28;20032;-68
2022/09/07 01:50:44;;;;;;;5.13;2.13;;;;;;;;;;5070863;28;20521;-69
2022/09/07 01:53:10;;;;;;;9.43;2.88;;;;;;;;;;5080390;28;20413;-68
2022/09/07 01:55:40;;;;;;;5.93;2.17;;;;;;;;;;5080143;28;20059;-69
2022/09/07 01:58:12;;;;;;;7.95;2.90;;;;;;;;;;5067944;28;20572;-68
2022/09/07 02:00:39;;;;;;;9.63;4.00;;;;;;;;;;5074026;28;20039;-68
2022/09/07 02:03:28;;;;;;;5.00;2.63;;;;;;;;;;5068357;28;20090;-68
2022/09/07 02:06:01;;;;;;;4.55;1.60;;;;;;;;;;5062165;28;20515;-68
2022/09/07 02:08:27;;;;;;;;;;;;;;;;;;5076010;28;20041;-69
2022/09/07 02:10:55;;;;;;;3.80;2.40;;;;;;;;;;5077414;28;19920;-69
2022/09/07 02:13:23;;;;;;;5.00;2.30;;;;;;;;;;5074076;28;20044;-68
2022/09/07 02:16:02;;;;;;;4.50;2.30;;;;;;;;;;5069028;28;20037;-68
2022/09/07 02:18:32;;;;;;;5.28;2.53;;;;;;;;;;5071214;28;20223;-68
2022/09/07 02:20:59;;;;;;;5.60;2.60;;;;;;;;;;5076396;28;20320;-68
2022/09/07 02:23:27;;;;;;;4.45;2.60;;;;;;;;;;5076013;28;20169;-69
2022/09/07 02:25:58;;;;;;;5.65;2.75;;;;;;;;;;5085060;28;20097;-68
2022/09/07 02:28:43;;;;;;;4.97;2.80;;;;;;;;;;5075126;28;20618;-69
2022/09/07 02:31:09;;;;;;;6.85;2.83;;;;;;;;;;5076147;28;20042;-68
2022/09/07 02:33:35;;;;;;;3.85;2.55;;;;;;;;;;5078591;28;20558;-68
2022/09/07 02:36:03;;;;;;;6.60;2.17;;;;;;;;;;5086423;28;20520;-68
2022/09/07 02:38:29;;;;;;;5.40;2.75;;;;;;;;;;5082925;28;20301;-68
2022/09/07 02:40:56;;;;;;;7.15;2.42;;;;;;;;;;5066427;28;20044;-68
2022/09/07 02:43:23;;;;;;;5.13;2.40;;;;;;;;;;5075494;28;20041;-68
2022/09/07 02:46:25;;;;;;;3.58;2.25;;;;;;;;;;5074688;28;20093;-68
2022/09/07 02:48:51;;;;;;;4.60;2.13;;;;;;;;;;5006148;28;20050;-68
2022/09/07 02:51:29;;;;;;;5.18;2.00;;;;;;;;;;5067114;28;20048;-68
2022/09/07 02:54:05;;;;;;;2.63;1.65;;;;;;;;;;5072155;28;20098;-68
2022/09/07 02:56:41;;;;;;;5.38;1.42;;;;;;;;;;5079754;28;20075;-68
2022/09/07 02:59:37;;;;;;;3.65;1.55;;;;;;;;;;5068419;28;20076;-68
2022/09/07 03:02:26;;;;;;;3.75;1.38;;;;;;;;;;5072895;28;20422;-68
2022/09/07 03:05:07;;;;;;;3.28;1.60;;;;;;;;;;5041723;28;20051;-67
2022/09/07 03:07:42;;;;;;;2.85;1.55;;;;;;;;;;5072560;28;20040;-67
2022/09/07 03:10:09;;;;;;;2.75;1.63;;;;;;;;;;5080325;28;20039;-68
2022/09/07 03:12:44;;;;;;;2.67;1.52;;;;;;;;;;5081303;28;20363;-68
2022/09/07 03:15:11;;;;;;;2.75;1.80;;;;;;;;;;5067118;28;20495;-68
2022/09/07 03:17:37;;;;;;;3.50;1.70;;;;;;;;;;5075708;28;20059;-68
2022/09/07 03:20:04;;;;;;;3.97;1.80;;;;;;;;;;5079305;28;20044;-68
2022/09/07 03:22:32;;;;;;;3.88;2.00;;;;;;;;;;5068938;28;20040;-67
2022/09/07 03:24:58;;;;;;;3.60;1.80;;;;;;;;;;5075933;28;20085;-68
2022/09/07 03:27:24;;;;;;;3.65;1.80;;;;;;;;;;5082596;28;20036;-68
2022/09/07 03:29:50;;;;;;;5.25;1.98;;;;;;;;;;5073272;28;20451;-68
2022/09/07 03:32:16;;;;;;;2.55;1.80;;;;;;;;;;5070572;28;20044;-68
2022/09/07 03:34:43;;;;;;;2.85;1.60;;;;;;;;;;5075092;28;20044;-68
2022/09/07 03:37:09;;;;;;;2.50;1.65;;;;;;;;;;5075686;28;20075;-68
2022/09/07 03:39:35;;;;;;;5.13;1.70;;;;;;;;;;5080853;28;20418;-68
2022/09/07 03:42:01;;;;;;;3.50;1.63;;;;;;;;;;5078638;28;20082;-68
2022/09/07 03:44:27;;;;;;;3.95;1.80;;;;;;;;;;5069566;28;20132;-68
2022/09/07 03:46:53;;;;;;;2.67;1.67;;;;;;;;;;5072418;28;20041;-68
2022/09/07 03:49:20;;;;;;;3.58;1.65;;;;;;;;;;5070976;28;20048;-69
2022/09/07 03:51:46;;;;;;;3.10;1.92;;;;;;;;;;5080452;28;20550;-68
2022/09/07 03:54:12;;;;;;;3.20;1.55;;;;;;;;;;5078522;28;20116;-68
2022/09/07 03:56:38;;;;;;;4.25;1.40;;;;;;;;;;5076587;28;20151;-68
2022/09/07 03:59:04;;;;;;;4.57;2.53;;;;;;;;;;5069363;28;20628;-68
2022/09/07 04:01:30;;;;;;;5.00;2.25;;;;;;;;;;5074228;28;20044;-68
2022/09/07 04:03:58;;;;;;;3.60;2.17;;;;;;;;;;5075524;28;20055;-68
2022/09/07 04:06:24;;;;;;;7.70;2.25;;;;;;;;;;5071666;28;20123;-68
2022/09/07 04:08:50;;;;;;;3.67;2.10;;;;;;;;;;5074200;28;20040;-68
2022/09/07 04:11:17;;;;;;;3.03;1.90;;;;;;;;;;5070312;28;20498;-68
2022/09/07 04:13:44;;;;;;;4.47;2.47;;;;;;;;;;5073328;28;20036;-69
2022/09/07 04:16:13;;;;;;;6.70;2.85;;;;;;;;;;5074408;28;20572;-68
2022/09/07 04:18:39;;;;;;;2.75;1.63;;;;;;;;;;5071177;28;20075;-68
2022/09/07 04:21:05;;;;;;;2.95;1.75;;;;;;;;;;5081083;28;20036;-69
2022/09/07 04:23:32;;;;;;;3.00;1.92;;;;;;;;;;5075166;28;20041;-68
2022/09/07 04:25:58;;;;;;;5.10;2.10;;;;;;;;;;5077177;28;20242;-68
2022/09/07 04:28:24;;;;;;;4.57;2.75;;;;;;;;;;5069372;28;20408;-68
2022/09/07 04:30:50;;;;;;;4.22;1.95;;;;;;;;;;5074661;28;20039;-68
2022/09/07 04:33:17;;;;;;;6.50;2.47;;;;;;;;;;5068515;28;20048;-68
2022/09/07 04:35:43;;;;;;;5.35;2.53;;;;;;;;;;5070962;28;20059;-69
2022/09/07 04:38:12;;;;;;;9.52;3.60;;;;;;;;;;5074161;28;20041;-69
2022/09/07 04:40:38;;;;;;;6.70;2.35;;;;;;;;;;5069643;28;20591;-68
2022/09/07 04:43:06;;;;;;;6.97;2.80;;;;;;;;;;5075034;28;20036;-68
2022/09/07 04:45:35;;;;;;;5.88;2.53;;;;;;;;;;5073025;28;20491;-68
2022/09/07 04:48:01;;;;;;;4.75;1.73;;;;;;;;;;5064878;28;20032;-67
2022/09/07 04:50:27;;;;;;;3.97;2.33;;;;;;;;;;5064105;28;20036;-68
2022/09/07 04:52:54;;;;;;;5.05;3.30;;;;;;;;;;5063362;28;20390;-68
2022/09/07 04:55:20;;;;;;;5.70;2.90;;;;;;;;;;5072144;28;20113;-68
2022/09/07 04:57:48;;;;;;;6.70;3.38;;;;;;;;;;5074753;28;20103;-68
2022/09/07 05:00:33;;;;;;;4.22;3.05;;;;;;;;;;5069383;28;20094;-68
2022/09/07 05:02:59;;;;;;;5.38;3.08;;;;;;;;;;5069248;28;20487;-68
2022/09/07 05:05:26;;;;;;;6.18;2.70;;;;;;;;;;5065319;28;20082;-68
2022/09/07 05:07:52;;;;;;;5.22;2.80;;;;;;;;;;5066039;28;20120;-68
2022/09/07 05:10:18;;;;;;;6.60;2.53;;;;;;;;;;5069190;28;20440;-68
2022/09/07 05:12:44;;;;;;;9.98;3.00;;;;;;;;;;5074845;28;20479;-68
2022/09/07 05:15:10;;;;;;;5.15;2.88;;;;;;;;;;5063720;28;20135;-68
2022/09/07 05:17:36;;;;;;;5.03;3.00;;;;;;;;;;5082731;28;20194;-68
2022/09/07 05:20:03;;;;;;;5.80;2.92;;;;;;;;;;5070971;28;20279;-68
2022/09/07 05:22:29;;;;;;;6.40;4.40;;;;;;;;;;5067609;28;20268;-67
2022/09/07 05:24:55;;;;;;;5.55;3.45;;;;;;;;;;5063750;28;20040;-68
2022/09/07 05:27:22;;;;;;;8.50;3.55;;;;;;;;;;5061787;28;20047;-68
2022/09/07 05:29:48;;;;;;;7.28;3.08;;;;;;;;;;5062583;28;20283;-69
2022/09/07 05:32:14;;;;;;;6.13;3.35;;;;;;;;;;5065425;28;20523;-68
2022/09/07 05:34:40;;;;;;;6.50;3.90;;;;;;;;;;5079509;28;20479;-69
2022/09/07 05:37:06;;;;;;;5.93;3.85;;;;;;;;;;5074630;28;20044;-68
2022/09/07 05:39:33;;;;;;;5.85;3.33;;;;;;;;;;5064739;28;20607;-68
2022/09/07 05:41:59;;;;;;;6.25;3.63;;;;;;;;;;5067317;28;20044;-68
2022/09/07 05:44:25;;;;;;;6.57;4.30;;;;;;;;;;5064754;28;20055;-68
2022/09/07 05:46:52;;;;;;;5.70;4.10;;;;;;;;;;5064056;28;20047;-69
2022/09/07 05:49:18;;;;;;;5.00;3.75;;;;;;;;;;5063300;28;20527;-68
2022/09/07 05:51:44;;;;;;;7.35;3.83;;;;;;;;;;5069308;28;20036;-68
2022/09/07 05:54:10;;;;;;;5.28;3.30;;;;;;;;;;5068628;28;20541;-68
2022/09/07 05:56:37;;;;;;;8.23;3.85;;;;;;;;;;5067493;28;20060;-68
2022/09/07 05:59:03;;;;;;;8.10;3.80;;;;;;;;;;5070060;28;20442;-68
2022/09/07 06:01:30;;;;;;;6.15;4.22;;;;;;;;;;5070094;28;20041;-68
2022/09/07 06:03:56;;;;;;;4.72;3.67;;;;;;;;;;5077788;28;20042;-68
2022/09/07 06:06:22;;;;;;;4.35;3.60;;;;;;;;;;5072290;28;20043;-68
2022/09/07 06:08:50;;;;;;;5.03;3.70;;;;;;;;;;5074507;28;20066;-69
2022/09/07 06:11:18;;;;;;;6.47;3.90;;;;;;;;;;5072656;28;20047;-68
2022/09/07 06:13:44;;;;;;;6.72;3.92;;;;;;;;;;5069148;28;20285;-68
2022/09/07 06:16:11;;;;;;;5.90;4.00;;;;;;;;;;5069409;28;20533;-69
2022/09/07 06:18:41;;;;;;;7.07;4.82;;;;;;;;;;5073132;28;20261;-68
2022/09/07 06:21:09;;;;;;;8.38;4.80;;;;;;;;;;5082632;28;20122;-68
2022/09/07 06:23:36;;;;;;;6.18;4.07;;;;;;;;;;5084067;28;20041;-68
2022/09/07 06:26:02;;;;;;;5.95;4.00;;;;;;;;;;5077771;28;20048;-68
2022/09/07 06:28:29;;;;;;;7.85;4.90;;;;;;;;;;5072068;28;20036;-68
2022/09/07 06:30:59;;;;;;;6.18;4.18;;;;;;;;;;5073724;28;20040;-68
2022/09/07 06:33:25;;;;;;;7.10;3.92;;;;;;;;;;5078018;28;20045;-68
2022/09/07 06:35:58;;;;;;;7.20;4.97;;;;;;;;;;5084862;28;20043;-67
2022/09/07 06:38:25;;;;;;;6.32;4.45;;;;;;;;;;5071960;28;20470;-68
2022/09/07 06:40:51;;;;;;;6.28;4.38;;;;;;;;;;5066702;28;20377;-68
2022/09/07 06:43:17;;;;;;;5.72;4.28;;;;;;;;;;5067851;28;20483;-68
2022/09/07 06:45:43;;;;;;;7.60;5.15;;;;;;;;;;5070613;28;20048;-68
2022/09/07 06:48:10;;;;;;;6.45;5.32;;;;;;;;;;5066259;28;20211;-68
2022/09/07 06:50:36;;;;;;;8.18;6.25;;;;;;;;;;5068410;28;20348;-67
2022/09/07 06:53:02;;;;;;;10.10;7.28;;;;;;;;;;5074421;28;20499;-68
2022/09/07 06:55:28;;;;;;;8.70;7.47;;;;;;;;;;5065603;28;20055;-68
2022/09/07 06:57:54;;;;;;;9.07;7.10;;;;;;;;;;5066177;28;20040;-68
2022/09/07 07:00:20;;;;;;;11.10;9.43;;;;;;;;;;5067175;28;20445;-68
2022/09/07 07:02:47;;;;;;;9.85;8.65;;;;;;;;;;5067641;28;20036;-69
2022/09/07 07:05:13;;;;;;;12.63;9.70;;;;;;;;;;5066178;28;20041;-68
2022/09/07 07:07:39;;;;;;;12.75;9.38;;;;;;;;;;5067160;28;20184;-68
2022/09/07 07:10:05;;;;;;;12.02;9.63;;;;;;;;;;5067206;28;20040;-68
2022/09/07 07:12:31;;;;;;;11.18;8.73;;;;;;;;;;5065874;28;20044;-69
2022/09/07 07:14:58;;;;;;;12.25;9.45;;;;;;;;;;5069919;28;20036;-68
2022/09/07 07:17:24;;;;;;;12.25;10.32;;;;;;;;;;5065469;28;20074;-68
2022/09/07 07:19:50;;;;;;;13.43;9.98;;;;;;;;;;5071620;28;20040;-68
2022/09/07 07:22:17;;;;;;;14.00;9.80;;;;;;;;;;5066431;28;20540;-68
2022/09/07 07:24:43;;;;;;;12.75;11.15;;;;;;;;;;5069844;28;20120;-68
2022/09/07 07:27:09;;;;;;;16.33;12.90;;;;;;;;;;5057598;28;20189;-68
2022/09/07 07:29:35;;;;;;;15.57;12.20;;;;;;;;;;5065901;28;20048;-68
2022/09/07 07:32:02;;;;;;;12.93;11.25;;;;;;;;;;5068920;28;20059;-68
2022/09/07 07:37:32;;;;;;;;;;;;;;;;;;5066768;28;20097;-68
2022/09/07 07:39:59;;;;;;;15.45;13.55;;;;;;;;;;5066251;28;19951;-68
2022/09/07 07:42:25;;;;;;;13.07;11.68;;;;;;;;;;5071620;28;20097;-68
2022/09/07 07:44:51;;;;;;;15.43;12.77;;;;;;;;;;5066257;28;20176;-68
2022/09/07 07:47:18;;;;;;;14.25;11.38;;;;;;;;;;5066307;28;20403;-67
2022/09/07 07:49:44;;;;;;;13.57;11.55;;;;;;;;;;5065807;28;20044;-68
2022/09/07 07:52:10;;;;;;;13.75;11.13;;;;;;;;;;5066606;28;20070;-68
2022/09/07 07:54:37;;;;;;;15.02;11.27;;;;;;;;;;5070280;28;20043;-68
2022/09/07 07:57:04;;;;;;;13.88;10.73;;;;;;;;;;5082364;28;20055;-68
2022/09/07 07:59:30;;;;;;;15.80;11.45;;;;;;;;;;5068235;28;20040;-68
2022/09/07 08:01:56;;;;;;;14.57;11.45;;;;;;;;;;5071377;28;20079;-68
2022/09/07 08:04:22;;;;;;;14.38;11.45;;;;;;;;;;5065812;28;20055;-68
2022/09/07 08:06:48;;;;;;;14.35;10.52;;;;;;;;;;5071565;28;20064;-68
2022/09/07 08:09:15;;;;;;;15.63;11.65;;;;;;;;;;5064789;28;20548;-68
2022/09/07 08:11:41;;;;;;;15.10;11.57;;;;;;;;;;5065577;28;20475;-68
2022/09/07 08:14:07;;;;;;;15.15;12.25;;;;;;;;;;5065430;28;20041;-68
2022/09/07 08:16:35;;;;;;;12.85;10.68;;;;;;;;;;5065404;28;20040;-68
2022/09/07 08:19:01;;;;;;;13.82;10.40;;;;;;;;;;5066521;28;20079;-68
2022/09/07 08:21:27;;;;;;;15.35;11.35;;;;;;;;;;5075979;28;20043;-69
2022/09/07 08:23:53;;;;;;;17.33;11.73;;;;;;;;;;5079287;28;20048;-68
2022/09/07 08:26:19;;;;;;;13.55;10.40;;;;;;;;;;5074132;28;20085;-68
2022/09/07 08:28:46;;;;;;;14.98;12.13;;;;;;;;;;5072245;28;20478;-68
2022/09/07 08:31:17;;;;;;;14.88;10.68;;;;;;;;;;5073156;28;20054;-68
2022/09/07 08:33:43;;;;;;;13.48;10.68;;;;;;;;;;5065380;28;20037;-68
2022/09/07 08:36:13;;;;;;;14.25;9.90;;;;;;;;;;5083052;28;20048;-69
2022/09/07 08:38:40;;;;;;;11.45;9.88;;;;;;;;;;5069552;28;20044;-69
2022/09/07 08:41:25;;;;;;;13.15;10.23;;;;;;;;;;5071668;28;20070;-68
2022/09/07 08:44:10;;;;;;;12.35;10.18;;;;;;;;;;5070082;28;20044;-68
2022/09/07 08:46:42;;;;;;;13.73;9.30;;;;;;;;;;5066261;28;20050;-68
2022/09/07 08:49:15;;;;;;;12.48;11.05;;;;;;;;;;5065264;28;20040;-69
2022/09/07 08:51:49;;;;;;;12.70;10.23;;;;;;;;;;5065896;28;20514;-68
2022/09/07 08:54:16;;;;;;;13.80;9.85;;;;;;;;;;5064804;28;20535;-69
2022/09/07 08:56:44;;;;;;;10.73;9.57;;;;;;;;;;5078991;28;20115;-69
2022/09/07 08:59:19;;;;;;;13.90;9.52;;;;;;;;;;5065486;28;20652;-69
2022/09/07 09:01:45;;;;;;;13.95;9.75;;;;;;;;;;5064820;28;20044;-69
2022/09/07 09:04:25;;;;;;;11.23;9.52;;;;;;;;;;5067508;28;20036;-68
2022/09/07 09:07:15;;;;;;;12.52;9.52;;;;;;;;;;5065054;28;20048;-69
2022/09/07 09:10:03;;;;;;;12.45;10.55;;;;;;;;;;5072958;28;20495;-68
2022/09/07 09:12:51;;;;;;;10.70;9.57;;;;;;;;;;5064572;28;20048;-68
2022/09/07 09:15:35;;;;;;;12.43;7.70;;;;;;;;;;5045774;28;20060;-69
2022/09/07 09:18:21;;;;;;;11.10;8.70;;;;;;;;;;5075503;28;20131;-69
2022/09/07 09:20:52;;;;;;;12.38;6.90;;;;;;;;;;5067288;28;20037;-68
2022/09/07 09:23:19;;;;;;;12.20;7.47;;;;;;;;;;5075758;28;20039;-68
2022/09/07 09:25:55;;;;;;;6.65;5.95;;;;;;;;;;5070634;28;20406;-69
2022/09/07 09:28:21;;;;;;;8.63;6.28;;;;;;;;;;5074742;28;20510;-68
2022/09/07 09:30:48;;;;;;;9.40;5.68;;;;;;;;;;5078696;28;20454;-69
2022/09/07 09:33:15;;;;;;;8.23;5.82;;;;;;;;;;5064159;28;20045;-69
2022/09/07 09:35:41;;;;;;;6.45;5.07;;;;;;;;;;5065053;28;20441;-68
2022/09/07 09:38:28;;;;;;;5.70;4.80;;;;;;;;;;5064641;28;20040;-68
2022/09/07 09:40:55;;;;;;;7.05;4.93;;;;;;;;;;5069579;28;20039;-69
2022/09/07 09:43:24;;;;;;;6.10;5.00;;;;;;;;;;5067741;28;20056;-69
2022/09/07 09:45:52;;;;;;;5.70;4.22;;;;;;;;;;5063909;28;20040;-69
2022/09/07 09:48:20;;;;;;;5.25;3.97;;;;;;;;;;5064348;28;20033;-69
2022/09/07 09:50:48;;;;;;;6.15;4.35;;;;;;;;;;5076389;28;20394;-69
2022/09/07 09:53:25;;;;;;;5.43;4.20;;;;;;;;;;5076887;28;20079;-69
2022/09/07 09:55:52;;;;;;;7.03;4.10;;;;;;;;;;5064740;28;20076;-69
2022/09/07 09:58:46;;;;;;;5.57;4.55;;;;;;;;;;5064340;28;20066;-69
2022/09/07 10:01:31;;;;;;;7.68;4.00;;;;;;;;;;5069871;28;20503;-68
2022/09/07 10:04:17;;;;;;;8.35;3.72;;;;;;;;;;5065593;28;20418;-69
2022/09/07 10:06:53;;;;;;;4.25;3.17;;;;;;;;;;5064472;28;20117;-68
2022/09/07 10:09:21;;;;;;;4.65;4.03;;;;;;;;;;5068205;28;20040;-68
2022/09/07 10:11:49;;;;;;;3.40;2.70;;;;;;;;;;5064486;28;20044;-68
2022/09/07 10:14:18;;;;;;;3.70;3.08;;;;;;;;;;5067244;28;20449;-69
2022/09/07 10:16:45;;;;;;;3.78;2.42;;;;;;;;;;5067415;28;20052;-68
2022/09/07 10:19:29;;;;;;;3.22;2.40;;;;;;;;;;5078419;28;20076;-68
2022/09/07 10:21:56;;;;;;;4.90;3.30;;;;;;;;;;5075643;28;20037;-68
2022/09/07 10:24:27;;;;;;;3.22;2.35;;;;;;;;;;5072464;28;20079;-68
2022/09/07 10:26:53;;;;;;;3.90;2.33;;;;;;;;;;5069182;28;20040;-69
2022/09/07 10:29:36;;;;;;;3.85;2.83;;;;;;;;;;5070530;28;20044;-69
2022/09/07 10:32:05;;;;;;;5.70;3.20;;;;;;;;;;5069744;28;20036;-69
2022/09/07 10:34:46;;;;;;;4.15;2.90;;;;;;;;;;5079133;28;20558;-69
2022/09/07 10:37:24;;;;;;;4.13;2.28;;;;;;;;;;5078674;28;20590;-69
2022/09/07 10:39:58;;;;;;;4.25;2.03;;;;;;;;;;5074698;28;20048;-69
2022/09/07 10:42:27;;;;;;;4.88;2.38;;;;;;;;;;5073056;28;20047;-68
2022/09/07 10:45:03;;;;;;;4.57;2.30;;;;;;;;;;5063989;28;20090;-69
2022/09/07 10:47:29;;;;;;;3.22;1.75;;;;;;;;;;5072083;28;20093;-69
2022/09/07 10:50:02;;;;;;;2.75;1.80;;;;;;;;;;5078115;28;20318;-68
2022/09/07 10:52:35;;;;;;;2.90;1.80;;;;;;;;;;5067496;28;20679;-69
2022/09/07 10:55:01;;;;;;;2.67;1.85;;;;;;;;;;5066882;28;20522;-68
2022/09/07 10:57:27;;;;;;;2.97;1.50;;;;;;;;;;5067324;28;20119;-69
2022/09/07 11:00:02;;;;;;;5.20;1.70;;;;;;;;;;5066272;28;20174;-69
2022/09/07 11:02:28;;;;;;;1.75;1.40;;;;;;;;;;5070380;28;20051;-68
2022/09/07 11:05:03;;;;;;;2.55;1.67;;;;;;;;;;5079217;28;20048;-68
2022/09/07 11:07:40;;;;;;;2.53;1.52;;;;;;;;;;5077159;28;20135;-69
2022/09/07 11:10:33;;;;;;;6.05;1.20;;;;;;;;;;5066081;28;20036;-69
2022/09/07 11:13:00;;;;;;;2.75;1.20;;;;;;;;;;5064367;28;20048;-69
2022/09/07 11:15:28;;;;;;;2.03;1.45;;;;;;;;;;5067832;28;20481;-69
2022/09/07 11:18:00;;;;;;;3.08;2.03;;;;;;;;;;5084089;28;20040;-69
2022/09/07 11:20:31;;;;;;;3.35;1.52;;;;;;;;;;5068369;28;20040;-68
2022/09/07 11:23:17;;;;;;;2.22;1.45;;;;;;;;;;5067024;28;20062;-68
2022/09/07 11:25:48;;;;;;;2.55;1.50;;;;;;;;;;5077780;28;20131;-69
2022/09/07 11:28:20;;;;;;;3.92;1.73;;;;;;;;;;5070186;28;20037;-69
2022/09/07 11:30:57;;;;;;;4.10;1.88;;;;;;;;;;5085543;28;20119;-69
2022/09/07 11:33:23;;;;;;;4.70;1.40;;;;;;;;;;5067495;28;20190;-69
2022/09/07 11:36:01;;;;;;;3.80;2.08;;;;;;;;;;5075124;28;20593;-69
2022/09/07 11:38:34;;;;;;;4.43;1.35;;;;;;;;;;5070925;28;20029;-69
2022/09/07 11:41:10;;;;;;;2.85;1.60;;;;;;;;;;5081156;28;20035;-69
2022/09/07 11:44:02;;;;;;;5.63;2.10;;;;;;;;;;5065385;28;20506;-69
2022/09/07 11:46:49;;;;;;;3.58;2.55;;;;;;;;;;5048252;28;20056;-69
2022/09/07 11:49:19;;;;;;;1.92;1.42;;;;;;;;;;5068095;28;20517;-69
2022/09/07 11:51:48;;;;;;;4.72;1.60;;;;;;;;;;5065581;28;20036;-69
2022/09/07 11:54:23;;;;;;;3.95;1.90;;;;;;;;;;5066401;28;20052;-69
2022/09/07 11:57:03;;;;;;;4.18;1.58;;;;;;;;;;5073729;28;20804;-69
2022/09/07 11:59:32;;;;;;;2.42;1.83;;;;;;;;;;5068626;28;20044;-69
2022/09/07 12:02:01;;;;;;;2.60;1.50;;;;;;;;;;5076033;28;20037;-69
2022/09/07 12:04:50;;;;;;;5.65;1.88;;;;;;;;;;5064684;28;20036;-69
2022/09/07 12:07:34;;;;;;;3.03;1.55;;;;;;;;;;5065661;28;20082;-69
2022/09/07 12:10:19;;;;;;;2.22;1.65;;;;;;;;;;5068752;28;20043;-69
2022/09/07 12:12:51;;;;;;;3.60;1.50;;;;;;;;;;5065256;28;20040;-69
2022/09/07 12:15:35;;;;;;;2.30;1.40;;;;;;;;;;5070560;28;20048;-69
2022/09/07 12:18:14;;;;;;;2.33;1.50;;;;;;;;;;5072205;28;20048;-68
2022/09/07 12:20:42;;;;;;;5.90;2.38;;;;;;;;;;5070587;28;20069;-68
2022/09/07 12:23:17;;;;;;;3.97;1.80;;;;;;;;;;5065045;28;20048;-69
2022/09/07 12:25:44;;;;;;;1.98;1.30;;;;;;;;;;5065436;28;20039;-69
2022/09/07 12:28:17;;;;;;;2.42;1.50;;;;;;;;;;5064420;28;20036;-68
2022/09/07 12:30:52;;;;;;;3.13;1.83;;;;;;;;;;5072875;28;20387;-68
2022/09/07 12:33:23;;;;;;;2.30;1.33;;;;;;;;;;5073783;28;20041;-68
2022/09/07 12:35:49;;;;;;;2.97;1.73;;;;;;;;;;5068849;28;20068;-69
2022/09/07 12:38:18;;;;;;;3.42;1.67;;;;;;;;;;5065676;28;20137;-68
2022/09/07 12:40:57;;;;;;;2.45;1.48;;;;;;;;;;5061529;28;20037;-68
2022/09/07 12:43:32;;;;;;;2.45;1.83;;;;;;;;;;5064834;28;20064;-69
2022/09/07 12:45:59;;;;;;;2.97;1.50;;;;;;;;;;5063929;28;20573;-69
2022/09/07 12:48:52;;;;;;;2.88;1.92;;;;;;;;;;5063622;28;20556;-69
2022/09/07 12:51:24;;;;;;;4.10;2.30;;;;;;;;;;5063083;28;20063;-68
2022/09/07 12:53:50;;;;;;;;;;;;;;;;;;5064581;28;20498;-68
2022/09/07 12:56:28;;;;;;;2.17;1.50;;;;;;;;;;5067561;28;19983;-68
2022/09/07 12:58:57;;;;;;;2.13;1.60;;;;;;;;;;5065651;28;20048;-68
2022/09/07 13:01:23;;;;;;;3.28;1.75;;;;;;;;;;5071251;28;20177;-69
2022/09/07 13:04:01;;;;;;;2.10;1.40;;;;;;;;;;5072451;28;20033;-68
2022/09/07 13:06:27;;;;;;;6.97;1.83;;;;;;;;;;5067841;28;20212;-68
2022/09/07 13:08:59;;;;;;;5.43;2.20;;;;;;;;;;5064531;28;20036;-68
2022/09/07 13:11:30;;;;;;;4.05;2.35;;;;;;;;;;5077591;28;20046;-68
2022/09/07 13:14:01;;;;;;;2.70;1.52;;;;;;;;;;5064621;28;20055;-68
2022/09/07 13:16:29;;;;;;;3.92;1.77;;;;;;;;;;5067861;28;20040;-69
2022/09/07 13:18:55;;;;;;;2.13;1.58;;;;;;;;;;5065155;28;20441;-69
2022/09/07 13:21:30;;;;;;;2.03;1.30;;;;;;;;;;5073777;28;20519;-68
2022/09/07 13:24:17;;;;;;;1.85;1.10;;;;;;;;;;5066170;28;20036;-69
2022/09/07 13:27:02;;;;;;;1.67;1.40;;;;;;;;;;5063751;28;20115;-68
2022/09/07 13:29:40;;;;;;;3.83;2.20;;;;;;;;;;5064342;28;20044;-69
2022/09/07 13:32:11;;;;;;;2.63;1.70;;;;;;;;;;5062886;28;20040;-68
2022/09/07 13:34:45;;;;;;;3.03;1.63;;;;;;;;;;5066485;28;20052;-68
2022/09/07 13:37:15;;;;;;;3.85;1.90;;;;;;;;;;5073352;28;20072;-68
2022/09/07 13:39:44;;;;;;;3.70;1.55;;;;;;;;;;5064981;28;20036;-68
2022/09/07 13:42:18;;;;;;;3.47;1.70;;;;;;;;;;5065601;28;20040;-68
2022/09/07 13:44:51;;;;;;;3.22;2.08;;;;;;;;;;5068184;28;20076;-68
2022/09/07 13:47:36;;;;;;;3.85;2.72;;;;;;;;;;5064999;28;20040;-68
2022/09/07 13:50:11;;;;;;;3.38;1.98;;;;;;;;;;5065211;28;20469;-68
2022/09/07 13:52:51;;;;;;;2.80;2.00;;;;;;;;;;5063108;28;20075;-67
2022/09/07 13:55:23;;;;;;;3.72;1.70;;;;;;;;;;5068241;28;20048;-68
2022/09/07 13:58:08;;;;;;;2.80;1.85;;;;;;;;;;5064816;28;20506;-68
2022/09/07 14:00:34;;;;;;;3.70;1.77;;;;;;;;;;5079005;28;20042;-69
2022/09/07 14:03:04;;;;;;;3.78;1.50;;;;;;;;;;5063846;28;20411;-69
2022/09/07 14:05:30;;;;;;;2.30;1.50;;;;;;;;;;5065895;28;20049;-69
2022/09/07 14:07:56;;;;;;;1.98;1.50;;;;;;;;;;5063119;28;20033;-69
2022/09/07 14:10:24;;;;;;;3.08;1.58;;;;;;;;;;5064789;28;20040;-68
2022/09/07 14:12:52;;;;;;;1.70;1.35;;;;;;;;;;5063854;28;20095;-68
2022/09/07 14:15:18;;;;;;;2.75;1.52;;;;;;;;;;5066684;28;20044;-69
2022/09/07 14:17:45;;;;;;;4.20;1.92;;;;;;;;;;5068512;28;20585;-69
2022/09/07 14:20:15;;;;;;;1.85;1.30;;;;;;;;;;5067474;28;20040;-69
2022/09/07 14:22:42;;;;;;;2.22;1.30;;;;;;;;;;5070668;28;20836;-69
2022/09/07 14:25:14;;;;;;;2.17;1.60;;;;;;;;;;5066113;28;20094;-69
2022/09/07 14:27:42;;;;;;;2.20;1.42;;;;;;;;;;5065905;28;20452;-68
2022/09/07 14:30:27;;;;;;;3.67;1.50;;;;;;;;;;5068702;28;20445;-69
2022/09/07 14:32:55;;;;;;;2.13;1.45;;;;;;;;;;5064841;28;20055;-69
2022/09/07 14:35:22;;;;;;;3.05;1.23;;;;;;;;;;5077331;28;20044;-69
2022/09/07 14:37:49;;;;;;;3.45;1.48;;;;;;;;;;5068454;28;20036;-69
2022/09/07 14:40:20;;;;;;;2.70;1.40;;;;;;;;;;5072740;28;20036;-69
2022/09/07 14:42:50;;;;;;;2.63;1.30;;;;;;;;;;5066943;28;20037;-69
2022/09/07 14:45:18;;;;;;;2.30;1.30;;;;;;;;;;5069410;28;20043;-69
2022/09/07 14:47:45;;;;;;;4.22;1.70;;;;;;;;;;5083693;28;20043;-70
2022/09/07 14:50:19;;;;;;;2.92;1.63;;;;;;;;;;5072678;28;20376;-69
2022/09/07 14:52:48;;;;;;;2.25;1.33;;;;;;;;;;5067456;28;20327;-69
2022/09/07 14:55:31;;;;;;;2.90;1.60;;;;;;;;;;5066385;28;20056;-70
2022/09/07 14:58:13;;;;;;;4.45;2.20;;;;;;;;;;5069588;28;20052;-69
2022/09/07 15:00:43;;;;;;;3.88;1.83;;;;;;;;;;5064729;28;20085;-69